Time;durP1;ratioP1;P1;durP2;ratioP2;P2;SDS_P1;SDS_P2;PMS_P1;PMS_P2;Temp;Humidity;BMP_temperature;BMP_pressure;BME280_temperature;BME280_humidity;BME280_pressure;Samples;Min_cycle;Max_cycle;Signal;HPM_P1;HPM_P2
2021/07/08 00:00:20;;;;;;;6.63;5.35;;;;;;;17.57;100.00;101379.41;5000187;28;20147;-70
2021/07/08 00:02:49;;;;;;;5.55;4.88;;;;;;;17.52;100.00;101385.09;5004475;28;20072;-70
2021/07/08 00:05:19;;;;;;;7.65;5.38;;;;;;;17.45;100.00;101384.69;4990471;28;20478;-71
2021/07/08 00:07:46;;;;;;;5.97;5.22;;;;;;;17.43;100.00;101385.78;5020543;28;20060;-70
2021/07/08 00:10:19;;;;;;;8.95;5.85;;;;;;;17.39;100.00;101377.19;5013900;28;20054;-70
2021/07/08 00:12:47;;;;;;;7.10;5.20;;;;;;;17.36;100.00;101381.88;5006595;28;20038;-70
2021/07/08 00:15:18;;;;;;;7.35;5.85;;;;;;;17.29;100.00;101380.63;5029168;28;20121;-70
2021/07/08 00:17:47;;;;;;;5.75;4.95;;;;;;;17.18;100.00;101382.28;4998921;28;20048;-69
2021/07/08 00:20:19;;;;;;;6.70;5.95;;;;;;;17.14;100.00;101385.28;5000938;28;20510;-70
2021/07/08 00:22:46;;;;;;;6.93;6.13;;;;;;;17.15;100.00;101379.84;5020735;28;20212;-69
2021/07/08 00:25:18;;;;;;;8.10;5.82;;;;;;;17.00;100.00;101375.69;5026725;28;20056;-70
2021/07/08 00:27:46;;;;;;;6.88;6.18;;;;;;;17.13;100.00;101373.81;5004698;28;20045;-70
2021/07/08 00:30:14;;;;;;;14.25;6.10;;;;;;;16.96;100.00;101369.72;5009054;28;20054;-70
2021/07/08 00:32:42;;;;;;;6.90;6.20;;;;;;;16.91;100.00;101361.25;4969374;28;20050;-70
2021/07/08 00:35:10;;;;;;;6.93;6.28;;;;;;;16.93;100.00;101364.66;4994903;28;20056;-70
2021/07/08 00:37:38;;;;;;;8.82;6.82;;;;;;;16.90;100.00;101372.00;5014181;28;20124;-71
2021/07/08 00:40:08;;;;;;;10.18;7.30;;;;;;;16.87;100.00;101366.91;5005347;28;20155;-70
2021/07/08 00:42:35;;;;;;;8.88;7.05;;;;;;;16.71;100.00;101372.47;5000614;28;20072;-70
2021/07/08 00:45:08;;;;;;;17.23;7.78;;;;;;;16.78;100.00;101381.72;5001695;28;20060;-71
2021/07/08 00:47:36;;;;;;;8.27;7.53;;;;;;;16.74;100.00;101374.94;5015570;28;20084;-70
2021/07/08 00:50:05;;;;;;;8.43;7.72;;;;;;;16.68;100.00;101376.19;5021018;28;20054;-70
2021/07/08 00:52:32;;;;;;;9.00;8.10;;;;;;;16.70;100.00;101368.09;5025460;28;20383;-71
2021/07/08 00:55:00;;;;;;;9.73;8.13;;;;;;;16.65;100.00;101368.44;5003451;28;20058;-73
2021/07/08 00:57:27;;;;;;;8.93;8.05;;;;;;;16.67;100.00;101357.72;5017263;28;20049;-71
2021/07/08 00:59:55;;;;;;;7.95;7.22;;;;;;;16.77;100.00;101358.75;5015897;28;20046;-70
2021/07/08 01:02:23;;;;;;;9.60;8.40;;;;;;;16.73;100.00;101353.78;5005917;28;20519;-70
2021/07/08 01:04:50;;;;;;;9.50;8.70;;;;;;;16.72;100.00;101355.59;5001556;28;20567;-70
2021/07/08 01:07:23;;;;;;;7.93;7.22;;;;;;;16.64;100.00;101355.25;4988506;28;20038;-71
2021/07/08 01:09:51;;;;;;;10.07;9.05;;;;;;;16.59;100.00;101358.25;5014262;28;20057;-70
2021/07/08 01:12:19;;;;;;;9.15;8.30;;;;;;;16.64;100.00;101353.44;5021522;28;20064;-70
2021/07/08 01:14:46;;;;;;;12.35;8.15;;;;;;;16.69;100.00;101350.44;5019067;28;20585;-69
2021/07/08 01:17:14;;;;;;;9.32;8.35;;;;;;;16.61;100.00;101345.69;5019850;28;20522;-70
2021/07/08 01:19:42;;;;;;;8.68;7.85;;;;;;;16.43;100.00;101362.97;4996886;28;20064;-70
2021/07/08 01:22:10;;;;;;;10.32;8.50;;;;;;;16.49;100.00;101359.03;5012412;28;20054;-69
2021/07/08 01:24:37;;;;;;;9.95;8.98;;;;;;;16.35;100.00;101358.22;5007274;28;20065;-70
2021/07/08 01:27:06;;;;;;;9.82;8.80;;;;;;;16.32;100.00;101358.44;5004419;28;20045;-70
2021/07/08 01:29:33;;;;;;;12.07;9.60;;;;;;;16.35;100.00;101363.53;5005420;28;20540;-71
2021/07/08 01:32:01;;;;;;;10.48;8.68;;;;;;;16.44;100.00;101356.72;4997173;28;20050;-71
2021/07/08 01:34:28;;;;;;;10.65;8.68;;;;;;;16.37;100.00;101361.59;5025295;28;20056;-71
2021/07/08 01:36:56;;;;;;;9.20;8.25;;;;;;;16.42;100.00;101361.28;5016098;28;20069;-70
2021/07/08 01:39:23;;;;;;;8.38;7.68;;;;;;;16.43;100.00;101362.97;5020199;28;20049;-69
2021/07/08 01:41:50;;;;;;;7.63;6.93;;;;;;;16.59;100.00;101366.22;5014145;28;20046;-71
2021/07/08 01:44:18;;;;;;;8.98;8.18;;;;;;;16.52;100.00;101367.63;5022737;28;20048;-69
2021/07/08 01:46:45;;;;;;;9.98;8.98;;;;;;;16.44;100.00;101367.34;5002530;28;20076;-70
2021/07/08 01:49:13;;;;;;;11.68;8.25;;;;;;;16.23;100.00;101374.19;5008173;28;20053;-70
2021/07/08 01:51:41;;;;;;;10.25;9.02;;;;;;;16.29;100.00;101371.94;5013422;28;20056;-71
2021/07/08 01:54:08;;;;;;;13.15;9.50;;;;;;;16.28;100.00;101367.56;4985963;28;20049;-70
2021/07/08 01:56:39;;;;;;;9.75;8.65;;;;;;;16.21;100.00;101371.66;5015959;28;20413;-70
2021/07/08 01:59:06;;;;;;;10.30;8.75;;;;;;;16.22;100.00;101372.50;5009253;28;20050;-69
2021/07/08 02:01:33;;;;;;;10.07;9.18;;;;;;;16.17;100.00;101355.06;5021003;28;20049;-70
2021/07/08 02:04:01;;;;;;;10.55;9.65;;;;;;;16.12;100.00;101358.97;5018871;28;20050;-70
2021/07/08 02:06:28;;;;;;;10.27;9.25;;;;;;;16.03;100.00;101352.53;5026550;28;20452;-71
2021/07/08 02:08:56;;;;;;;10.70;9.80;;;;;;;15.88;100.00;101358.91;5017086;28;20641;-71
2021/07/08 02:11:23;;;;;;;17.92;13.95;;;;;;;15.87;100.00;101362.53;5024819;28;20045;-71
2021/07/08 02:13:50;;;;;;;21.42;14.65;;;;;;;15.90;100.00;101367.63;5016252;28;20534;-71
2021/07/08 02:16:18;;;;;;;15.60;13.55;;;;;;;15.90;100.00;101367.63;5017341;28;20189;-70
2021/07/08 02:18:46;;;;;;;17.48;12.13;;;;;;;15.87;100.00;101370.47;5017376;28;20126;-70
2021/07/08 02:21:14;;;;;;;15.90;12.80;;;;;;;15.89;100.00;101379.19;5018106;28;20205;-70
2021/07/08 02:23:41;;;;;;;15.82;12.02;;;;;;;15.76;100.00;101373.03;5022971;28;20060;-71
2021/07/08 02:26:09;;;;;;;12.45;11.20;;;;;;;15.70;100.00;101372.47;5018322;28;20538;-68
2021/07/08 02:28:38;;;;;;;14.00;10.57;;;;;;;15.71;100.00;101370.69;5019592;28;20064;-70
2021/07/08 02:31:07;;;;;;;10.95;9.85;;;;;;;15.81;100.00;101373.56;5010424;28;20049;-70
2021/07/08 02:33:34;;;;;;;10.68;9.30;;;;;;;15.80;100.00;101385.13;5008053;28;20058;-70
2021/07/08 02:36:03;;;;;;;9.60;8.63;;;;;;;15.87;100.00;101379.31;5017378;28;20060;-70
2021/07/08 02:38:30;;;;;;;12.02;8.88;;;;;;;15.92;100.00;101393.09;5032090;28;20056;-72
2021/07/08 02:40:58;;;;;;;10.05;9.13;;;;;;;15.93;100.00;101389.47;5005864;28;21025;-71
2021/07/08 02:43:25;;;;;;;12.57;9.15;;;;;;;15.96;100.00;101385.78;5008131;28;20051;-70
2021/07/08 02:45:53;;;;;;;8.63;7.85;;;;;;;16.09;100.00;101394.59;5017623;28;20057;-71
2021/07/08 02:48:22;;;;;;;8.45;7.50;;;;;;;16.21;100.00;101387.59;5019094;28;20048;-70
2021/07/08 02:50:51;;;;;;;8.45;7.55;;;;;;;16.34;100.00;101382.22;5001585;28;20053;-70
2021/07/08 02:53:19;;;;;;;11.60;7.65;;;;;;;16.54;100.00;101394.09;5020871;28;20050;-71
2021/07/08 02:55:47;;;;;;;8.40;7.60;;;;;;;16.53;100.00;101382.63;5017455;28;20054;-71
2021/07/08 02:58:14;;;;;;;7.82;6.65;;;;;;;16.55;100.00;101386.00;5015856;28;20054;-70
2021/07/08 03:00:42;;;;;;;7.03;6.38;;;;;;;16.59;100.00;101389.31;5017392;28;20647;-70
2021/07/08 03:03:11;;;;;;;9.13;7.10;;;;;;;16.65;100.00;101389.69;5019260;28;20635;-69
2021/07/08 03:05:38;;;;;;;7.35;6.68;;;;;;;16.68;100.00;101389.50;5024818;28;20051;-70
2021/07/08 03:08:05;;;;;;;7.07;6.38;;;;;;;16.73;100.00;101388.34;5000388;28;20042;-71
2021/07/08 03:10:33;;;;;;;7.30;6.60;;;;;;;16.86;100.00;101386.50;5023509;28;20063;-70
2021/07/08 03:13:01;;;;;;;7.68;6.15;;;;;;;16.84;100.00;101383.06;5001414;28;20159;-69
2021/07/08 03:15:29;;;;;;;6.78;6.18;;;;;;;16.78;100.00;101387.03;5025524;28;20068;-69
2021/07/08 03:17:57;;;;;;;6.75;6.05;;;;;;;16.79;100.00;101385.22;4995810;28;20551;-70
2021/07/08 03:20:30;;;;;;;6.53;6.00;;;;;;;16.78;100.00;101395.03;5020082;28;20566;-71
2021/07/08 03:22:58;;;;;;;7.43;6.32;;;;;;;16.80;100.00;101392.28;5014067;28;20484;-70
2021/07/08 03:25:26;;;;;;;8.13;6.00;;;;;;;16.71;100.00;101397.25;5006126;28;20048;-71
2021/07/08 03:27:54;;;;;;;7.10;6.10;;;;;;;16.70;100.00;101379.56;5014197;28;20050;-70
2021/07/08 03:30:25;;;;;;;6.53;5.78;;;;;;;16.76;100.00;101383.66;5004253;28;20046;-70
2021/07/08 03:32:52;;;;;;;8.43;6.95;;;;;;;16.57;100.00;101377.91;5015453;28;20511;-70
2021/07/08 03:35:24;;;;;;;7.18;6.40;;;;;;;16.55;100.00;101391.34;5014738;28;20587;-71
2021/07/08 03:37:52;;;;;;;8.43;6.80;;;;;;;16.61;100.00;101388.22;5017517;28;20052;-70
2021/07/08 03:40:20;;;;;;;8.70;6.65;;;;;;;16.69;100.00;101388.53;5022074;28;20088;-70
2021/07/08 03:42:50;;;;;;;7.50;6.00;;;;;;;16.79;100.00;101402.03;5021024;28;20597;-70
2021/07/08 03:45:19;;;;;;;6.97;6.22;;;;;;;17.02;100.00;101403.03;5013032;28;20053;-71
2021/07/08 03:47:47;;;;;;;6.70;6.05;;;;;;;17.09;100.00;101396.28;5010413;28;20060;-71
2021/07/08 03:50:14;;;;;;;8.82;6.25;;;;;;;17.11;100.00;101399.69;4982207;28;20053;-70
2021/07/08 03:52:42;;;;;;;6.28;5.47;;;;;;;17.18;100.00;101403.56;5011296;28;20064;-71
2021/07/08 03:55:12;;;;;;;10.70;6.90;;;;;;;17.28;100.00;101410.88;5000599;28;20055;-71
2021/07/08 03:57:52;;;;;;;8.63;6.22;;;;;;;17.37;100.00;101404.84;5014969;28;20053;-70
2021/07/08 04:00:30;;;;;;;10.73;5.85;;;;;;;17.20;100.00;101407.00;5003018;28;20480;-69
2021/07/08 04:02:59;;;;;;;9.77;5.60;;;;;;;17.27;100.00;101406.53;5012550;28;20416;-71
2021/07/08 04:05:27;;;;;;;11.30;6.05;;;;;;;17.23;100.00;101410.38;5017353;28;20052;-71
2021/07/08 04:07:54;;;;;;;8.07;6.10;;;;;;;17.48;100.00;101414.72;5019244;28;20046;-70
2021/07/08 04:10:22;;;;;;;7.32;5.80;;;;;;;17.58;100.00;101405.91;5019462;28;20068;-71
2021/07/08 04:12:49;;;;;;;9.05;5.57;;;;;;;17.72;100.00;101407.50;4997077;28;20384;-70
2021/07/08 04:15:18;;;;;;;5.63;5.03;;;;;;;17.93;99.57;101413.06;5025264;28;20407;-70
2021/07/08 04:17:45;;;;;;;6.63;5.22;;;;;;;18.00;98.17;101406.25;5013619;28;20508;-71
2021/07/08 04:20:16;;;;;;;6.07;5.22;;;;;;;18.02;98.02;101412.34;5017974;28;20046;-71
2021/07/08 04:22:45;;;;;;;9.25;5.93;;;;;;;17.91;99.26;101407.81;5015480;28;20050;-71
2021/07/08 04:25:14;;;;;;;6.60;5.65;;;;;;;17.96;98.62;101415.47;5016433;28;20537;-71
2021/07/08 04:27:41;;;;;;;6.13;5.13;;;;;;;17.74;100.00;101407.41;5019691;28;20046;-70
2021/07/08 04:30:10;;;;;;;9.90;5.25;;;;;;;17.90;99.12;101410.63;5022754;28;20408;-70
2021/07/08 04:32:37;;;;;;;9.02;5.70;;;;;;;18.05;98.46;101409.41;5020627;28;20052;-70
2021/07/08 04:35:06;;;;;;;6.88;5.88;;;;;;;18.14;97.43;101407.84;5017012;28;20151;-72
2021/07/08 04:37:40;;;;;;;6.13;5.53;;;;;;;18.16;97.41;101405.94;5005176;28;20060;-71
2021/07/08 04:40:16;;;;;;;6.05;5.55;;;;;;;18.19;97.46;101411.88;5015265;28;20208;-70
2021/07/08 04:42:44;;;;;;;5.88;5.38;;;;;;;18.43;96.10;101406.41;5013850;28;20531;-69
2021/07/08 04:45:13;;;;;;;7.55;5.97;;;;;;;18.64;94.57;101413.66;5017083;28;20380;-70
2021/07/08 04:47:42;;;;;;;8.18;5.88;;;;;;;18.95;92.24;101410.22;5009755;28;20049;-70
2021/07/08 04:50:12;;;;;;;9.00;5.18;;;;;;;19.48;87.87;101399.59;5019191;28;20046;-71
2021/07/08 04:52:40;;;;;;;10.02;5.63;;;;;;;20.21;84.97;101400.47;4989492;28;20068;-70
2021/07/08 04:55:08;;;;;;;5.57;4.55;;;;;;;21.69;77.56;101396.94;5019789;28;20055;-70
2021/07/08 04:57:36;;;;;;;7.35;4.85;;;;;;;21.89;74.16;101396.91;4999014;28;20063;-70
2021/07/08 05:00:09;;;;;;;9.57;5.43;;;;;;;21.62;73.90;101390.47;5000263;28;20049;-70
2021/07/08 05:02:37;;;;;;;8.00;5.13;;;;;;;21.37;75.72;101391.06;5010573;28;20071;-71
2021/07/08 05:05:06;;;;;;;6.72;5.60;;;;;;;22.36;70.84;101395.06;5030140;28;20128;-70
2021/07/08 05:07:34;;;;;;;6.40;4.22;;;;;;;24.18;64.69;101390.19;5020260;28;20046;-70
2021/07/08 05:10:07;;;;;;;5.82;4.40;;;;;;;26.17;57.10;101382.03;5022933;28;20038;-69
2021/07/08 05:12:34;;;;;;;5.55;4.30;;;;;;;26.87;53.75;101391.16;5006811;28;20064;-71
2021/07/08 05:15:09;;;;;;;5.32;4.25;;;;;;;28.05;50.01;101377.16;5019104;28;20042;-70
2021/07/08 05:17:36;;;;;;;10.77;4.10;;;;;;;29.09;46.89;101388.66;5021600;28;20050;-71
2021/07/08 05:20:07;;;;;;;6.35;3.78;;;;;;;27.83;49.36;101392.44;5023089;28;20396;-70
2021/07/08 05:22:35;;;;;;;7.03;3.78;;;;;;;26.53;52.75;101400.47;4997485;28;20054;-71
2021/07/08 05:25:04;;;;;;;6.20;3.78;;;;;;;25.47;55.84;101390.72;5001283;28;20042;-70
2021/07/08 05:27:31;;;;;;;4.30;3.10;;;;;;;24.65;59.04;101399.66;5005373;28;20063;-71
2021/07/08 05:30:00;;;;;;;8.18;3.83;;;;;;;23.56;63.24;101399.34;5020807;28;20056;-71
2021/07/08 05:32:27;;;;;;;7.72;3.90;;;;;;;22.98;65.23;101401.50;4999809;28;20042;-70
2021/07/08 05:34:55;;;;;;;5.40;3.70;;;;;;;22.23;68.72;101398.06;5016387;28;20053;-71
2021/07/08 05:37:22;;;;;;;8.65;4.75;;;;;;;21.63;71.65;101386.78;5016802;28;20049;-71
2021/07/08 05:39:50;;;;;;;6.38;4.13;;;;;;;21.28;73.44;101387.34;5030780;28;20105;-71
2021/07/08 05:42:17;;;;;;;8.43;4.13;;;;;;;20.95;75.42;101389.47;5002418;28;20060;-72
2021/07/08 05:44:44;;;;;;;6.20;4.07;;;;;;;21.02;74.85;101387.06;4996062;28;20539;-70
2021/07/08 05:47:12;;;;;;;6.50;3.80;;;;;;;20.66;76.73;101394.75;5026441;28;20457;-71
2021/07/08 05:49:55;;;;;;;6.18;4.35;;;;;;;20.65;77.42;101398.41;4995194;28;20046;-70
2021/07/08 05:52:24;;;;;;;6.45;3.40;;;;;;;20.68;77.41;101398.16;5005120;28;20045;-71
2021/07/08 05:54:51;;;;;;;6.63;4.10;;;;;;;20.71;76.86;101399.69;5014255;28;20480;-70
2021/07/08 05:57:18;;;;;;;8.20;3.75;;;;;;;20.66;77.52;101401.94;5000744;28;20054;-70
2021/07/08 05:59:46;;;;;;;4.68;3.45;;;;;;;20.59;78.51;101409.66;5000794;28;20088;-70
2021/07/08 06:02:13;;;;;;;9.93;3.78;;;;;;;20.58;77.75;101415.13;4999738;28;20408;-71
2021/07/08 06:04:41;;;;;;;5.50;3.88;;;;;;;20.55;78.73;101413.59;5012330;28;20161;-70
2021/07/08 06:07:08;;;;;;;10.25;4.28;;;;;;;20.50;78.84;101415.84;4999270;28;20132;-70
2021/07/08 06:09:35;;;;;;;10.23;4.15;;;;;;;20.45;79.71;101418.03;5014402;28;20060;-71
2021/07/08 06:12:03;;;;;;;12.15;4.68;;;;;;;20.22;80.84;101420.91;5019526;28;20041;-71
2021/07/08 06:14:31;;;;;;;4.97;4.00;;;;;;;20.24;80.68;101426.09;5022427;28;20051;-72
2021/07/08 06:16:58;;;;;;;17.05;4.85;;;;;;;20.22;80.56;101428.09;5017887;28;20053;-72
2021/07/08 06:19:26;;;;;;;5.60;4.03;;;;;;;20.01;81.38;101427.25;5020844;28;20048;-70
2021/07/08 06:21:53;;;;;;;7.50;4.50;;;;;;;19.92;82.22;101435.06;5000934;28;20046;-70
2021/07/08 06:24:21;;;;;;;8.65;4.18;;;;;;;19.79;83.12;101437.09;5014112;28;20079;-73
2021/07/08 06:26:48;;;;;;;9.32;4.25;;;;;;;19.68;85.62;101426.50;5017693;28;20056;-71
2021/07/08 06:29:15;;;;;;;7.55;4.63;;;;;;;19.65;84.52;101426.75;5018616;28;20054;-70
2021/07/08 06:31:43;;;;;;;10.05;5.07;;;;;;;19.45;86.16;101415.88;5016310;28;20073;-71
2021/07/08 06:34:10;;;;;;;9.82;4.20;;;;;;;19.54;85.58;101416.91;5016923;28;20079;-71
2021/07/08 06:36:38;;;;;;;4.00;3.40;;;;;;;19.49;85.97;101411.13;5001691;28;20068;-71
2021/07/08 06:39:06;;;;;;;6.72;4.07;;;;;;;19.45;86.19;101415.88;5016531;28;20048;-71
2021/07/08 06:41:33;;;;;;;7.43;4.00;;;;;;;19.45;86.14;101415.00;5019359;28;20384;-70
2021/07/08 06:44:01;;;;;;;7.30;3.92;;;;;;;19.38;87.09;101425.38;4997531;28;20121;-71
2021/07/08 06:46:30;;;;;;;7.18;4.70;;;;;;;19.52;86.19;101413.53;4987819;28;20045;-70
2021/07/08 06:48:59;;;;;;;10.10;5.32;;;;;;;19.46;87.06;101417.56;5017788;28;20060;-69
2021/07/08 06:51:27;;;;;;;6.13;3.90;;;;;;;19.51;86.85;101427.03;4997701;28;20376;-71
2021/07/08 06:53:55;;;;;;;9.80;4.30;;;;;;;19.42;87.27;101431.31;5013983;28;20050;-70
2021/07/08 06:56:24;;;;;;;8.30;4.40;;;;;;;19.45;87.37;101420.34;5017781;28;20693;-71
2021/07/08 06:58:56;;;;;;;8.20;4.88;;;;;;;19.41;87.89;101425.13;5006311;28;20121;-76
2021/07/08 07:05:14;;;;;;;6.03;4.70;;;;;;;19.27;89.03;101437.91;4948143;28;20039;-71
2021/07/08 07:07:42;;;;;;;7.95;4.53;;;;;;;19.10;89.78;101448.16;5013339;28;20054;-71
2021/07/08 07:10:09;;;;;;;7.95;4.82;;;;;;;19.05;90.92;101445.03;5024716;28;20056;-71
2021/07/08 07:12:41;;;;;;;6.97;4.53;;;;;;;19.10;90.60;101439.31;5016114;28;20546;-71
2021/07/08 07:15:09;;;;;;;5.97;3.75;;;;;;;19.34;89.36;101428.44;5017420;28;20046;-70
2021/07/08 07:17:38;;;;;;;8.93;3.97;;;;;;;19.28;89.71;101439.63;5013923;28;20530;-72
2021/07/08 07:20:08;;;;;;;6.90;4.30;;;;;;;19.32;89.35;101436.56;5006083;28;20595;-70
2021/07/08 07:22:36;;;;;;;4.88;3.75;;;;;;;19.35;88.92;101440.78;5016314;28;20053;-73
2021/07/08 07:25:08;;;;;;;10.68;6.63;;;;;;;19.30;89.36;101443.84;5007072;28;20065;-70
2021/07/08 07:27:35;;;;;;;9.65;5.03;;;;;;;19.29;90.24;101446.66;5009078;28;20128;-72
2021/07/08 07:30:05;;;;;;;8.70;4.10;;;;;;;19.28;90.06;101435.13;5017920;28;20044;-72
2021/07/08 07:32:33;;;;;;;7.72;3.40;;;;;;;19.40;90.05;101433.25;5003460;28;20512;-71
2021/07/08 07:35:00;;;;;;;4.82;3.40;;;;;;;19.32;89.95;101441.03;4998459;28;20360;-71
2021/07/08 07:37:28;;;;;;;9.27;3.80;;;;;;;19.33;89.47;101432.91;5001182;28;20426;-70
2021/07/08 07:39:55;;;;;;;9.65;3.70;;;;;;;19.16;91.86;101441.47;5010479;28;20456;-71
2021/07/08 07:42:23;;;;;;;9.88;3.55;;;;;;;19.24;91.52;101436.34;5018788;28;20367;-71
2021/07/08 07:44:51;;;;;;;8.65;4.18;;;;;;;19.29;90.96;101435.97;5011273;28;20157;-72
2021/07/08 07:47:18;;;;;;;7.22;3.92;;;;;;;19.28;91.05;101437.81;5020305;28;20057;-71
2021/07/08 07:49:45;;;;;;;4.75;3.88;;;;;;;19.36;91.18;101431.81;4983840;28;20058;-73
2021/07/08 07:52:13;;;;;;;4.00;3.60;;;;;;;19.47;90.40;101429.09;5009616;28;20407;-70
2021/07/08 07:54:41;;;;;;;6.35;3.47;;;;;;;19.66;88.42;101434.63;5013436;28;21055;-70
2021/07/08 07:57:08;;;;;;;5.82;3.50;;;;;;;19.69;88.10;101429.03;5012126;28;20050;-71
2021/07/08 07:59:36;;;;;;;6.47;3.35;;;;;;;19.66;88.45;101426.59;5008188;28;20056;-70
2021/07/08 08:02:09;;;;;;;9.43;4.30;;;;;;;19.77;87.22;101422.16;5013355;28;20049;-72
2021/07/08 08:04:45;;;;;;;7.78;4.18;;;;;;;19.78;87.24;101418.53;5012745;28;20419;-71
2021/07/08 08:09:59;;;;;;;6.10;4.07;;;;;;;19.96;86.09;101423.16;5020895;28;20050;-70
2021/07/08 08:12:26;;;;;;;21.65;5.50;;;;;;;20.17;84.99;101414.22;5016192;28;20124;-70
2021/07/08 08:14:54;;;;;;;11.55;3.65;;;;;;;20.28;83.66;101410.66;5005175;28;20512;-70
2021/07/08 08:17:21;;;;;;;5.82;3.03;;;;;;;20.35;83.00;101419.81;5013915;28;20569;-71
2021/07/08 08:20:09;;;;;;;9.65;3.78;;;;;;;20.59;82.42;101431.06;5024753;28;20059;-71
2021/07/08 08:22:38;;;;;;;7.80;3.72;;;;;;;20.58;82.23;101425.84;5013469;28;20045;-71
2021/07/08 08:25:06;;;;;;;11.10;3.58;;;;;;;20.57;83.33;101433.03;5012748;28;20052;-71
2021/07/08 08:27:34;;;;;;;8.65;4.00;;;;;;;20.78;81.96;101438.31;5004449;28;20663;-70
2021/07/08 08:30:01;;;;;;;6.03;3.10;;;;;;;20.85;79.92;101434.09;5012177;28;20045;-71
2021/07/08 08:32:28;;;;;;;16.02;6.18;;;;;;;20.91;79.69;101440.72;5018050;28;20052;-72
2021/07/08 08:34:56;;;;;;;6.78;3.40;;;;;;;20.94;78.45;101444.00;4997411;28;20407;-71
2021/07/08 08:37:23;;;;;;;6.53;3.47;;;;;;;21.05;78.29;101447.53;5011163;28;20050;-71
2021/07/08 08:39:50;;;;;;;5.40;2.92;;;;;;;20.91;78.13;101446.09;5014653;28;20045;-71
2021/07/08 08:42:18;;;;;;;5.97;2.97;;;;;;;20.92;76.67;101445.09;5017994;28;20042;-70
2021/07/08 08:44:45;;;;;;;10.02;3.00;;;;;;;20.70;76.72;101449.69;5012486;28;20076;-70
2021/07/08 08:47:12;;;;;;;5.90;3.10;;;;;;;20.60;78.46;101456.84;5022761;28;20408;-70
2021/07/08 08:49:41;;;;;;;3.63;2.38;;;;;;;20.57;78.25;101448.22;4996279;28;20058;-71
2021/07/08 08:52:10;;;;;;;9.73;4.05;;;;;;;20.55;79.46;101452.88;5004638;28;20388;-72
2021/07/08 08:54:40;;;;;;;9.57;6.65;;;;;;;20.64;78.57;101458.25;4999341;28;20068;-70
2021/07/08 08:57:07;;;;;;;22.60;3.80;;;;;;;20.70;78.01;101456.88;5019781;28;20057;-70
2021/07/08 08:59:35;;;;;;;4.68;3.10;;;;;;;20.82;77.64;101452.25;5015829;28;20330;-72
2021/07/08 09:02:19;;;;;;;4.20;2.80;;;;;;;20.80;76.06;101451.53;4998249;28;20527;-71
2021/07/08 09:04:48;;;;;;;4.22;3.50;;;;;;;20.72;77.05;101446.88;4999666;28;20071;-69
2021/07/08 09:07:23;;;;;;;11.82;3.20;;;;;;;20.89;77.11;101448.03;4999651;28;20060;-71
2021/07/08 09:10:00;;;;;;;6.38;3.47;;;;;;;21.18;75.59;101446.28;5023510;28;20052;-71
2021/07/08 09:12:28;;;;;;;6.45;3.20;;;;;;;21.43;74.71;101436.88;5035309;28;20137;-69
2021/07/08 09:15:20;;;;;;;4.10;3.30;;;;;;;21.47;74.52;101440.09;5029790;28;20134;-70
2021/07/08 09:17:48;;;;;;;8.88;3.92;;;;;;;21.52;74.18;101426.28;5002819;28;20061;-71
2021/07/08 09:20:18;;;;;;;7.72;3.95;;;;;;;21.60;74.59;101418.38;5008564;28;20468;-71
2021/07/08 09:22:47;;;;;;;6.72;3.33;;;;;;;22.04;72.44;101408.00;4999231;28;20547;-70
2021/07/08 09:25:25;;;;;;;10.32;3.42;;;;;;;22.54;71.25;101413.91;5019871;28;20049;-71
2021/07/08 09:28:22;;;;;;;7.65;3.60;;;;;;;23.07;68.79;101418.56;5010011;28;20117;-73
2021/07/08 09:31:02;;;;;;;11.70;3.67;;;;;;;22.85;68.16;101416.28;5006024;28;20119;-71
2021/07/08 09:33:38;;;;;;;6.45;2.95;;;;;;;23.29;65.11;101419.94;5022944;28;20052;-71
2021/07/08 09:36:08;;;;;;;5.95;2.30;;;;;;;23.44;62.21;101422.94;5011992;28;20061;-71
2021/07/08 09:38:36;;;;;;;6.15;2.70;;;;;;;23.63;61.27;101424.59;5009591;28;20054;-74
2021/07/08 09:41:15;;;;;;;3.80;2.55;;;;;;;23.58;61.38;101419.69;5015802;28;20113;-71
2021/07/08 09:43:44;;;;;;;7.82;2.47;;;;;;;23.29;61.29;101424.47;5003440;28;20060;-72
2021/07/08 09:46:13;;;;;;;7.50;2.70;;;;;;;23.50;60.71;101403.47;5024947;28;20045;-71
2021/07/08 09:49:05;;;;;;;4.53;2.22;;;;;;;23.64;61.01;101413.72;4999515;28;20064;-72
2021/07/08 09:51:34;;;;;;;5.00;2.28;;;;;;;23.20;60.17;101423.56;5029666;28;20759;-72
2021/07/08 09:54:08;;;;;;;4.38;2.38;;;;;;;23.03;61.20;101421.69;5007390;28;20129;-73
2021/07/08 09:57:00;;;;;;;3.28;1.75;;;;;;;22.97;61.61;101417.78;4997566;28;20053;-71
2021/07/08 09:59:36;;;;;;;3.40;2.08;;;;;;;23.28;60.72;101425.44;5021662;28;20049;-72
2021/07/08 10:02:04;;;;;;;6.60;2.38;;;;;;;23.42;59.41;101419.56;4996943;28;20530;-70
2021/07/08 10:04:31;;;;;;;5.72;2.13;;;;;;;23.26;58.55;101436.38;5019808;28;20083;-71
2021/07/08 10:06:59;;;;;;;4.30;2.03;;;;;;;23.48;58.13;101440.44;5025338;28;20125;-71
2021/07/08 10:09:27;;;;;;;2.65;1.80;;;;;;;23.63;58.49;101446.09;5002665;28;20075;-70
2021/07/08 10:11:55;;;;;;;3.22;1.90;;;;;;;23.47;58.64;101444.13;5004703;28;20056;-70
2021/07/08 10:14:24;;;;;;;2.53;1.67;;;;;;;23.63;58.76;101446.94;5022146;28;20697;-71
2021/07/08 10:16:52;;;;;;;8.27;2.40;;;;;;;23.48;58.60;101454.72;5001563;28;20045;-72
2021/07/08 10:19:22;;;;;;;5.35;1.83;;;;;;;23.23;59.02;101445.56;5026393;28;20537;-72
2021/07/08 10:21:52;;;;;;;2.53;1.73;;;;;;;22.95;60.01;101441.25;5001460;28;20066;-71
2021/07/08 10:24:21;;;;;;;4.93;2.35;;;;;;;22.71;60.45;101442.63;5017834;28;20045;-71
2021/07/08 10:26:49;;;;;;;5.80;2.35;;;;;;;22.35;62.27;101444.34;5000049;28;20058;-71
2021/07/08 10:29:16;;;;;;;6.65;2.47;;;;;;;22.18;63.19;101455.84;5026612;28;20049;-71
2021/07/08 10:31:49;;;;;;;5.22;1.75;;;;;;;21.89;64.36;101461.25;4996389;28;20050;-73
2021/07/08 10:34:18;;;;;;;3.40;2.30;;;;;;;21.90;64.63;101460.25;5014421;28;20132;-71
2021/07/08 10:36:50;;;;;;;4.00;2.00;;;;;;;21.98;64.74;101457.69;4996585;28;20050;-71
2021/07/08 10:39:22;;;;;;;3.17;2.20;;;;;;;22.05;64.21;101453.44;5019355;28;20054;-70
2021/07/08 10:41:52;;;;;;;3.10;2.40;;;;;;;21.95;64.70;101457.97;5005012;28;21338;-70
2021/07/08 10:44:45;;;;;;;6.40;2.53;;;;;;;21.80;64.98;101451.38;5001409;28;20057;-71
2021/07/08 10:47:32;;;;;;;3.70;2.45;;;;;;;21.70;65.69;101454.91;4996008;28;20045;-69
2021/07/08 10:50:01;;;;;;;10.02;3.22;;;;;;;21.88;65.30;101446.97;5016835;28;20053;-71
2021/07/08 10:52:41;;;;;;;4.03;3.00;;;;;;;21.91;65.30;101453.88;5016718;28;20061;-71
2021/07/08 10:55:09;;;;;;;4.68;3.10;;;;;;;21.91;65.77;101454.72;4998551;28;20674;-71
2021/07/08 10:57:38;;;;;;;7.40;3.00;;;;;;;21.94;65.55;101459.81;5014966;28;20053;-72
2021/07/08 11:00:08;;;;;;;5.68;2.63;;;;;;;21.76;66.94;101458.84;5014452;28;20112;-72
2021/07/08 11:02:52;;;;;;;5.40;2.50;;;;;;;21.82;66.47;101452.91;5005825;28;20053;-70
2021/07/08 11:05:53;;;;;;;4.27;2.90;;;;;;;22.00;66.05;101459.22;5016076;28;20379;-73
2021/07/08 11:09:13;;;;;;;3.85;3.00;;;;;;;22.14;66.29;101459.78;4997526;28;20064;-71
2021/07/08 11:11:41;;;;;;;5.22;3.05;;;;;;;22.05;65.81;101456.13;4991926;28;20065;-74
2021/07/08 11:14:16;;;;;;;6.20;3.03;;;;;;;22.17;65.78;101457.69;5014927;28;20046;-72
2021/07/08 11:16:48;;;;;;;4.35;2.90;;;;;;;22.00;65.90;101459.22;5013069;28;20060;-70
2021/07/08 11:19:19;;;;;;;5.45;2.67;;;;;;;21.99;66.47;101441.47;5000086;28;20050;-71
2021/07/08 11:21:50;;;;;;;4.65;2.40;;;;;;;22.05;66.18;101440.03;5009458;28;20076;-72
2021/07/08 11:24:28;;;;;;;3.47;2.60;;;;;;;21.93;67.29;101441.19;5006277;28;20525;-71
2021/07/08 11:26:59;;;;;;;4.43;2.47;;;;;;;22.13;66.10;101442.03;5014531;28;20034;-71
2021/07/08 11:29:52;;;;;;;4.97;3.00;;;;;;;22.24;65.80;101448.06;5026024;28;20049;-71
2021/07/08 11:32:24;;;;;;;11.25;2.92;;;;;;;22.12;66.50;101446.53;5003059;28;20435;-71
2021/07/08 11:35:06;;;;;;;8.50;3.00;;;;;;;22.48;64.83;101444.84;4996072;28;20042;-70
2021/07/08 11:37:43;;;;;;;5.93;2.72;;;;;;;22.73;64.63;101453.19;5014709;28;20061;-71